sensor_id;sensor_type;location;lat;lon;timestamp;temperature;humidity
19348;DHT22;9810;52.480;9.806;2023-10-31T00:01:08;12.10;99.90
19348;DHT22;9810;52.480;9.806;2023-10-31T00:03:37;12.10;99.90
19348;DHT22;9810;52.480;9.806;2023-10-31T00:06:06;12.10;99.90
19348;DHT22;9810;52.480;9.806;2023-10-31T00:08:33;12.20;99.90
19348;DHT22;9810;52.480;9.806;2023-10-31T00:11:00;12.30;99.90
19348;DHT22;9810;52.480;9.806;2023-10-31T00:13:27;12.40;99.90
19348;DHT22;9810;52.480;9.806;2023-10-31T00:15:54;12.30;99.90
19348;DHT22;9810;52.480;9.806;2023-10-31T00:18:21;12.20;99.90
19348;DHT22;9810;52.480;9.806;2023-10-31T00:20:50;12.20;99.90
19348;DHT22;9810;52.480;9.806;2023-10-31T00:23:17;12.40;99.90
19348;DHT22;9810;52.480;9.806;2023-10-31T00:25:44;12.30;99.90
19348;DHT22;9810;52.480;9.806;2023-10-31T00:28:11;12.20;99.90
19348;DHT22;9810;52.480;9.806;2023-10-31T00:30:37;12.20;99.90
19348;DHT22;9810;52.480;9.806;2023-10-31T00:33:04;12.30;99.90
19348;DHT22;9810;52.480;9.806;2023-10-31T00:35:31;12.30;99.90
19348;DHT22;9810;52.480;9.806;2023-10-31T00:38:00;12.30;99.90
19348;DHT22;9810;52.480;9.806;2023-10-31T00:40:27;12.20;99.90
19348;DHT22;9810;52.480;9.806;2023-10-31T00:42:54;12.20;99.90
19348;DHT22;9810;52.480;9.806;2023-10-31T00:45:23;12.20;99.90
19348;DHT22;9810;52.480;9.806;2023-10-31T00:47:50;12.20;99.90
19348;DHT22;9810;52.480;9.806;2023-10-31T00:50:17;12.20;99.90
19348;DHT22;9810;52.480;9.806;2023-10-31T00:52:44;12.20;99.90
19348;DHT22;9810;52.480;9.806;2023-10-31T00:55:13;12.20;99.90
19348;DHT22;9810;52.480;9.806;2023-10-31T00:57:40;12.20;99.90
19348;DHT22;9810;52.480;9.806;2023-10-31T01:00:08;12.20;99.90
19348;DHT22;9810;52.480;9.806;2023-10-31T01:02:35;12.20;99.90
19348;DHT22;9810;52.480;9.806;2023-10-31T01:05:02;12.30;99.90
19348;DHT22;9810;52.480;9.806;2023-10-31T01:07:30;12.30;99.90
19348;DHT22;9810;52.480;9.806;2023-10-31T01:09:57;12.30;99.90
19348;DHT22;9810;52.480;9.806;2023-10-31T01:12:25;12.30;99.90
19348;DHT22;9810;52.480;9.806;2023-10-31T01:14:53;12.40;99.90
19348;DHT22;9810;52.480;9.806;2023-10-31T01:17:20;12.30;99.90
19348;DHT22;9810;52.480;9.806;2023-10-31T01:19:47;12.30;99.90
19348;DHT22;9810;52.480;9.806;2023-10-31T01:22:14;12.30;99.90
19348;DHT22;9810;52.480;9.806;2023-10-31T01:24:41;12.30;99.90
19348;DHT22;9810;52.480;9.806;2023-10-31T01:27:08;12.40;99.90
19348;DHT22;9810;52.480;9.806;2023-10-31T01:29:36;12.30;99.90
19348;DHT22;9810;52.480;9.806;2023-10-31T01:32:04;12.40;99.90
19348;DHT22;9810;52.480;9.806;2023-10-31T01:34:31;12.30;99.90
19348;DHT22;9810;52.480;9.806;2023-10-31T01:36:58;12.30;99.90
19348;DHT22;9810;52.480;9.806;2023-10-31T01:39:25;12.30;99.90
19348;DHT22;9810;52.480;9.806;2023-10-31T01:41:52;12.40;99.90
19348;DHT22;9810;52.480;9.806;2023-10-31T01:44:20;12.40;99.90
19348;DHT22;9810;52.480;9.806;2023-10-31T01:46:48;12.40;99.90
19348;DHT22;9810;52.480;9.806;2023-10-31T01:49:16;12.40;99.90
19348;DHT22;9810;52.480;9.806;2023-10-31T01:51:44;12.40;99.90
19348;DHT22;9810;52.480;9.806;2023-10-31T01:54:12;12.40;99.90
19348;DHT22;9810;52.480;9.806;2023-10-31T01:56:40;12.30;99.90
19348;DHT22;9810;52.480;9.806;2023-10-31T01:59:08;12.30;99.90
19348;DHT22;9810;52.480;9.806;2023-10-31T02:01:37;12.40;99.90
19348;DHT22;9810;52.480;9.806;2023-10-31T02:04:06;12.30;99.90
19348;DHT22;9810;52.480;9.806;2023-10-31T02:06:34;12.30;99.90
19348;DHT22;9810;52.480;9.806;2023-10-31T02:09:01;12.30;99.90
19348;DHT22;9810;52.480;9.806;2023-10-31T02:11:27;12.30;99.90
19348;DHT22;9810;52.480;9.806;2023-10-31T02:13:54;12.20;99.90
19348;DHT22;9810;52.480;9.806;2023-10-31T02:16:21;12.20;99.90
19348;DHT22;9810;52.480;9.806;2023-10-31T02:18:48;12.20;99.90
19348;DHT22;9810;52.480;9.806;2023-10-31T02:21:19;12.20;99.90
19348;DHT22;9810;52.480;9.806;2023-10-31T02:23:57;12.30;99.90
19348;DHT22;9810;52.480;9.806;2023-10-31T02:26:28;12.30;99.90
19348;DHT22;9810;52.480;9.806;2023-10-31T02:28:55;12.30;99.90
19348;DHT22;9810;52.480;9.806;2023-10-31T02:31:22;12.30;99.90
19348;DHT22;9810;52.480;9.806;2023-10-31T02:33:49;12.30;99.90
19348;DHT22;9810;52.480;9.806;2023-10-31T02:36:16;12.20;99.90
19348;DHT22;9810;52.480;9.806;2023-10-31T02:38:43;12.30;99.90
19348;DHT22;9810;52.480;9.806;2023-10-31T02:41:12;12.30;99.90
19348;DHT22;9810;52.480;9.806;2023-10-31T02:43:40;12.40;99.90
19348;DHT22;9810;52.480;9.806;2023-10-31T02:46:07;12.50;99.90
19348;DHT22;9810;52.480;9.806;2023-10-31T02:48:36;12.50;99.90
19348;DHT22;9810;52.480;9.806;2023-10-31T02:51:05;12.50;99.90
19348;DHT22;9810;52.480;9.806;2023-10-31T02:53:32;12.60;99.90
19348;DHT22;9810;52.480;9.806;2023-10-31T02:55:59;12.60;99.90
19348;DHT22;9810;52.480;9.806;2023-10-31T02:58:28;12.60;99.90
19348;DHT22;9810;52.480;9.806;2023-10-31T03:00:55;12.70;99.90
19348;DHT22;9810;52.480;9.806;2023-10-31T03:03:22;12.60;99.90
19348;DHT22;9810;52.480;9.806;2023-10-31T03:05:49;12.60;99.90
19348;DHT22;9810;52.480;9.806;2023-10-31T03:08:16;12.70;99.90
19348;DHT22;9810;52.480;9.806;2023-10-31T03:10:47;12.70;99.90
19348;DHT22;9810;52.480;9.806;2023-10-31T03:13:16;12.70;99.90
19348;DHT22;9810;52.480;9.806;2023-10-31T03:15:45;12.70;99.90
19348;DHT22;9810;52.480;9.806;2023-10-31T03:18:12;12.80;99.90
19348;DHT22;9810;52.480;9.806;2023-10-31T03:20:42;12.80;99.90
19348;DHT22;9810;52.480;9.806;2023-10-31T03:23:09;12.90;99.90
19348;DHT22;9810;52.480;9.806;2023-10-31T03:25:36;12.80;99.90
19348;DHT22;9810;52.480;9.806;2023-10-31T03:28:04;12.80;99.90
19348;DHT22;9810;52.480;9.806;2023-10-31T03:30:31;12.80;99.90
19348;DHT22;9810;52.480;9.806;2023-10-31T03:33:00;12.80;99.90
19348;DHT22;9810;52.480;9.806;2023-10-31T03:35:27;12.70;99.90
19348;DHT22;9810;52.480;9.806;2023-10-31T03:37:54;12.90;99.90
19348;DHT22;9810;52.480;9.806;2023-10-31T03:40:20;12.80;99.90
19348;DHT22;9810;52.480;9.806;2023-10-31T03:42:47;12.90;99.90
19348;DHT22;9810;52.480;9.806;2023-10-31T03:45:14;12.90;99.90
19348;DHT22;9810;52.480;9.806;2023-10-31T03:47:41;13.00;99.90
19348;DHT22;9810;52.480;9.806;2023-10-31T03:50:11;12.90;99.90
19348;DHT22;9810;52.480;9.806;2023-10-31T03:52:38;12.90;99.90
19348;DHT22;9810;52.480;9.806;2023-10-31T03:55:06;12.90;99.90
19348;DHT22;9810;52.480;9.806;2023-10-31T03:57:33;12.90;99.90
19348;DHT22;9810;52.480;9.806;2023-10-31T04:00:00;12.90;99.90
19348;DHT22;9810;52.480;9.806;2023-10-31T04:05:21;12.90;99.90
19348;DHT22;9810;52.480;9.806;2023-10-31T04:07:48;12.70;99.90
19348;DHT22;9810;52.480;9.806;2023-10-31T04:10:17;12.70;99.90
19348;DHT22;9810;52.480;9.806;2023-10-31T04:12:44;12.70;99.90
19348;DHT22;9810;52.480;9.806;2023-10-31T04:15:12;12.60;99.90
19348;DHT22;9810;52.480;9.806;2023-10-31T04:17:38;12.50;99.90
19348;DHT22;9810;52.480;9.806;2023-10-31T04:20:08;12.40;99.90
19348;DHT22;9810;52.480;9.806;2023-10-31T04:22:36;12.40;99.90
19348;DHT22;9810;52.480;9.806;2023-10-31T04:25:05;12.30;99.90
19348;DHT22;9810;52.480;9.806;2023-10-31T04:27:32;12.20;99.90
19348;DHT22;9810;52.480;9.806;2023-10-31T04:29:59;12.30;99.90
19348;DHT22;9810;52.480;9.806;2023-10-31T04:32:26;12.20;99.90
19348;DHT22;9810;52.480;9.806;2023-10-31T04:34:54;12.20;99.90
19348;DHT22;9810;52.480;9.806;2023-10-31T04:37:20;12.20;99.90
19348;DHT22;9810;52.480;9.806;2023-10-31T04:39:49;12.10;99.90
19348;DHT22;9810;52.480;9.806;2023-10-31T04:42:16;12.10;99.90
19348;DHT22;9810;52.480;9.806;2023-10-31T04:44:45;12.10;99.90
19348;DHT22;9810;52.480;9.806;2023-10-31T04:47:13;12.10;99.90
19348;DHT22;9810;52.480;9.806;2023-10-31T04:49:39;12.00;99.90
19348;DHT22;9810;52.480;9.806;2023-10-31T04:52:06;11.90;99.90
19348;DHT22;9810;52.480;9.806;2023-10-31T04:54:33;11.90;99.90
19348;DHT22;9810;52.480;9.806;2023-10-31T04:57:03;11.90;99.90
19348;DHT22;9810;52.480;9.806;2023-10-31T04:59:30;12.10;99.90
19348;DHT22;9810;52.480;9.806;2023-10-31T05:01:58;11.90;99.90
19348;DHT22;9810;52.480;9.806;2023-10-31T05:04:25;12.10;99.90
19348;DHT22;9810;52.480;9.806;2023-10-31T05:06:52;11.90;99.90
19348;DHT22;9810;52.480;9.806;2023-10-31T05:09:19;11.80;99.90
19348;DHT22;9810;52.480;9.806;2023-10-31T05:11:46;11.80;99.90
19348;DHT22;9810;52.480;9.806;2023-10-31T05:14:15;11.80;99.90
19348;DHT22;9810;52.480;9.806;2023-10-31T05:16:42;11.70;99.90
19348;DHT22;9810;52.480;9.806;2023-10-31T05:19:10;11.70;99.90
19348;DHT22;9810;52.480;9.806;2023-10-31T05:21:37;11.80;99.90
19348;DHT22;9810;52.480;9.806;2023-10-31T05:24:05;11.60;99.90
19348;DHT22;9810;52.480;9.806;2023-10-31T05:26:32;11.50;99.90
19348;DHT22;9810;52.480;9.806;2023-10-31T05:28:59;11.60;99.90
19348;DHT22;9810;52.480;9.806;2023-10-31T05:31:28;11.50;99.90
19348;DHT22;9810;52.480;9.806;2023-10-31T05:33:55;11.60;99.90
19348;DHT22;9810;52.480;9.806;2023-10-31T05:36:24;11.60;99.90
19348;DHT22;9810;52.480;9.806;2023-10-31T05:38:51;11.50;99.90
19348;DHT22;9810;52.480;9.806;2023-10-31T05:41:18;11.60;99.90
19348;DHT22;9810;52.480;9.806;2023-10-31T05:43:45;11.60;99.90
19348;DHT22;9810;52.480;9.806;2023-10-31T05:46:12;11.60;99.90
19348;DHT22;9810;52.480;9.806;2023-10-31T05:48:45;11.50;99.90
19348;DHT22;9810;52.480;9.806;2023-10-31T05:51:12;11.60;99.90
19348;DHT22;9810;52.480;9.806;2023-10-31T05:53:41;11.50;99.90
19348;DHT22;9810;52.480;9.806;2023-10-31T05:56:09;11.40;99.90
19348;DHT22;9810;52.480;9.806;2023-10-31T05:58:37;11.20;99.90
19348;DHT22;9810;52.480;9.806;2023-10-31T06:01:04;11.20;99.90
19348;DHT22;9810;52.480;9.806;2023-10-31T06:03:31;11.30;99.90
19348;DHT22;9810;52.480;9.806;2023-10-31T06:06:00;11.10;99.90
19348;DHT22;9810;52.480;9.806;2023-10-31T06:08:27;11.20;99.90
19348;DHT22;9810;52.480;9.806;2023-10-31T06:10:55;11.20;99.90
19348;DHT22;9810;52.480;9.806;2023-10-31T06:13:23;11.20;99.90
19348;DHT22;9810;52.480;9.806;2023-10-31T06:15:51;11.10;99.90
19348;DHT22;9810;52.480;9.806;2023-10-31T06:18:18;11.30;99.90
19348;DHT22;9810;52.480;9.806;2023-10-31T06:20:45;11.30;99.90
19348;DHT22;9810;52.480;9.806;2023-10-31T06:23:14;11.20;99.90
19348;DHT22;9810;52.480;9.806;2023-10-31T06:25:42;11.30;99.90
19348;DHT22;9810;52.480;9.806;2023-10-31T06:28:09;11.50;99.90
19348;DHT22;9810;52.480;9.806;2023-10-31T06:30:36;11.30;99.90
19348;DHT22;9810;52.480;9.806;2023-10-31T06:33:03;11.30;99.90
19348;DHT22;9810;52.480;9.806;2023-10-31T06:35:30;11.30;99.90
19348;DHT22;9810;52.480;9.806;2023-10-31T06:37:57;11.30;99.90
19348;DHT22;9810;52.480;9.806;2023-10-31T06:40:26;11.30;99.90
19348;DHT22;9810;52.480;9.806;2023-10-31T06:42:54;11.30;99.90
19348;DHT22;9810;52.480;9.806;2023-10-31T06:45:21;11.20;99.90
19348;DHT22;9810;52.480;9.806;2023-10-31T06:47:48;11.40;99.90
19348;DHT22;9810;52.480;9.806;2023-10-31T06:50:18;11.60;99.90
19348;DHT22;9810;52.480;9.806;2023-10-31T06:52:45;11.70;99.90
19348;DHT22;9810;52.480;9.806;2023-10-31T06:55:12;11.80;99.90
19348;DHT22;9810;52.480;9.806;2023-10-31T06:57:40;11.70;99.90
19348;DHT22;9810;52.480;9.806;2023-10-31T07:00:10;11.60;99.90
19348;DHT22;9810;52.480;9.806;2023-10-31T07:02:37;11.60;99.90
19348;DHT22;9810;52.480;9.806;2023-10-31T07:05:04;11.50;99.90
19348;DHT22;9810;52.480;9.806;2023-10-31T07:07:31;11.60;99.90
19348;DHT22;9810;52.480;9.806;2023-10-31T07:09:58;11.60;99.90
19348;DHT22;9810;52.480;9.806;2023-10-31T07:12:25;11.30;99.90
19348;DHT22;9810;52.480;9.806;2023-10-31T07:14:54;11.40;99.90
19348;DHT22;9810;52.480;9.806;2023-10-31T07:17:23;11.40;99.90
19348;DHT22;9810;52.480;9.806;2023-10-31T07:19:50;11.30;99.90
19348;DHT22;9810;52.480;9.806;2023-10-31T07:22:18;11.30;99.90
19348;DHT22;9810;52.480;9.806;2023-10-31T07:24:45;11.40;99.90
19348;DHT22;9810;52.480;9.806;2023-10-31T07:27:12;11.40;99.90
19348;DHT22;9810;52.480;9.806;2023-10-31T07:29:39;11.40;99.90
19348;DHT22;9810;52.480;9.806;2023-10-31T07:32:08;11.30;99.90
19348;DHT22;9810;52.480;9.806;2023-10-31T07:34:35;11.50;99.90
19348;DHT22;9810;52.480;9.806;2023-10-31T07:37:03;11.60;99.90
19348;DHT22;9810;52.480;9.806;2023-10-31T07:39:30;11.40;99.90
19348;DHT22;9810;52.480;9.806;2023-10-31T07:41:57;11.30;99.90
19348;DHT22;9810;52.480;9.806;2023-10-31T07:44:24;11.30;99.90
19348;DHT22;9810;52.480;9.806;2023-10-31T07:46:50;11.40;99.90
19348;DHT22;9810;52.480;9.806;2023-10-31T07:49:19;11.40;99.90
19348;DHT22;9810;52.480;9.806;2023-10-31T07:51:47;11.40;99.90
19348;DHT22;9810;52.480;9.806;2023-10-31T07:54:14;11.40;99.90
19348;DHT22;9810;52.480;9.806;2023-10-31T07:56:41;11.30;99.90
19348;DHT22;9810;52.480;9.806;2023-10-31T07:59:09;11.40;99.90
19348;DHT22;9810;52.480;9.806;2023-10-31T08:01:39;11.50;99.90
19348;DHT22;9810;52.480;9.806;2023-10-31T08:04:06;11.40;99.90
19348;DHT22;9810;52.480;9.806;2023-10-31T08:06:35;11.50;99.90
19348;DHT22;9810;52.480;9.806;2023-10-31T08:09:02;11.50;99.90
19348;DHT22;9810;52.480;9.806;2023-10-31T08:11:29;11.50;99.90
19348;DHT22;9810;52.480;9.806;2023-10-31T08:13:57;11.60;99.90
19348;DHT22;9810;52.480;9.806;2023-10-31T08:16:24;11.40;99.90
19348;DHT22;9810;52.480;9.806;2023-10-31T08:18:51;11.50;99.90
19348;DHT22;9810;52.480;9.806;2023-10-31T08:21:18;11.60;99.90
19348;DHT22;9810;52.480;9.806;2023-10-31T08:23:47;11.50;99.90
19348;DHT22;9810;52.480;9.806;2023-10-31T08:26:14;11.50;99.90
19348;DHT22;9810;52.480;9.806;2023-10-31T08:28:41;11.50;99.90
19348;DHT22;9810;52.480;9.806;2023-10-31T08:31:08;11.50;99.90
19348;DHT22;9810;52.480;9.806;2023-10-31T08:33:35;11.60;99.90
19348;DHT22;9810;52.480;9.806;2023-10-31T08:36:02;11.50;99.90
19348;DHT22;9810;52.480;9.806;2023-10-31T08:38:30;11.50;99.90
19348;DHT22;9810;52.480;9.806;2023-10-31T08:40:59;11.60;99.90
19348;DHT22;9810;52.480;9.806;2023-10-31T08:43:26;11.50;99.90
19348;DHT22;9810;52.480;9.806;2023-10-31T08:45:53;11.60;99.90
19348;DHT22;9810;52.480;9.806;2023-10-31T08:48:20;11.70;99.90
19348;DHT22;9810;52.480;9.806;2023-10-31T08:50:47;11.90;99.90
19348;DHT22;9810;52.480;9.806;2023-10-31T08:56:27;12.00;99.90
19348;DHT22;9810;52.480;9.806;2023-10-31T08:58:56;12.10;99.90
19348;DHT22;9810;52.480;9.806;2023-10-31T09:01:37;12.60;99.90
19348;DHT22;9810;52.480;9.806;2023-10-31T09:04:04;12.50;99.90
19348;DHT22;9810;52.480;9.806;2023-10-31T09:06:31;12.50;99.90
19348;DHT22;9810;52.480;9.806;2023-10-31T09:08:58;12.40;99.90
19348;DHT22;9810;52.480;9.806;2023-10-31T09:11:27;12.40;99.90
19348;DHT22;9810;52.480;9.806;2023-10-31T09:13:54;12.20;99.90
19348;DHT22;9810;52.480;9.806;2023-10-31T09:16:21;12.20;99.90
19348;DHT22;9810;52.480;9.806;2023-10-31T09:18:48;12.00;99.90
19348;DHT22;9810;52.480;9.806;2023-10-31T09:21:15;12.00;99.90
19348;DHT22;9810;52.480;9.806;2023-10-31T09:23:42;12.00;99.90
19348;DHT22;9810;52.480;9.806;2023-10-31T09:26:09;12.00;99.90
19348;DHT22;9810;52.480;9.806;2023-10-31T09:28:38;11.80;99.90
19348;DHT22;9810;52.480;9.806;2023-10-31T09:31:07;11.60;99.90
19348;DHT22;9810;52.480;9.806;2023-10-31T09:33:34;11.50;99.90
19348;DHT22;9810;52.480;9.806;2023-10-31T09:36:01;11.60;99.90
19348;DHT22;9810;52.480;9.806;2023-10-31T09:38:28;11.50;99.90
19348;DHT22;9810;52.480;9.806;2023-10-31T09:40:55;11.40;99.90
19348;DHT22;9810;52.480;9.806;2023-10-31T09:43:22;11.40;99.90
19348;DHT22;9810;52.480;9.806;2023-10-31T09:45:52;11.40;99.90
19348;DHT22;9810;52.480;9.806;2023-10-31T09:48:19;11.50;99.90
19348;DHT22;9810;52.480;9.806;2023-10-31T09:50:46;11.50;99.90
19348;DHT22;9810;52.480;9.806;2023-10-31T09:53:14;11.40;99.90
19348;DHT22;9810;52.480;9.806;2023-10-31T09:55:42;11.50;99.90
19348;DHT22;9810;52.480;9.806;2023-10-31T09:58:09;11.50;99.90
19348;DHT22;9810;52.480;9.806;2023-10-31T10:00:36;11.50;99.90
19348;DHT22;9810;52.480;9.806;2023-10-31T10:03:07;11.60;99.90
19348;DHT22;9810;52.480;9.806;2023-10-31T10:05:36;11.60;99.90
19348;DHT22;9810;52.480;9.806;2023-10-31T10:08:09;11.60;99.90
19348;DHT22;9810;52.480;9.806;2023-10-31T10:10:37;11.50;99.90
19348;DHT22;9810;52.480;9.806;2023-10-31T10:13:04;11.40;99.90
19348;DHT22;9810;52.480;9.806;2023-10-31T10:15:31;11.50;99.90
19348;DHT22;9810;52.480;9.806;2023-10-31T10:18:14;11.50;99.90
19348;DHT22;9810;52.480;9.806;2023-10-31T10:21:05;11.50;99.90
19348;DHT22;9810;52.480;9.806;2023-10-31T10:23:40;11.80;99.90
19348;DHT22;9810;52.480;9.806;2023-10-31T10:26:07;11.60;99.90
19348;DHT22;9810;52.480;9.806;2023-10-31T10:28:34;11.60;99.90
19348;DHT22;9810;52.480;9.806;2023-10-31T10:31:03;11.70;99.90
19348;DHT22;9810;52.480;9.806;2023-10-31T10:33:34;11.40;99.90
19348;DHT22;9810;52.480;9.806;2023-10-31T10:36:02;11.40;99.90
19348;DHT22;9810;52.480;9.806;2023-10-31T10:38:31;11.50;99.90
19348;DHT22;9810;52.480;9.806;2023-10-31T10:41:02;11.30;99.90
19348;DHT22;9810;52.480;9.806;2023-10-31T10:43:34;11.30;99.90
19348;DHT22;9810;52.480;9.806;2023-10-31T10:46:04;11.40;99.90
19348;DHT22;9810;52.480;9.806;2023-10-31T10:48:35;11.40;99.90
19348;DHT22;9810;52.480;9.806;2023-10-31T10:51:07;11.30;99.90
19348;DHT22;9810;52.480;9.806;2023-10-31T10:53:44;11.20;99.90
19348;DHT22;9810;52.480;9.806;2023-10-31T10:56:20;11.20;99.90
19348;DHT22;9810;52.480;9.806;2023-10-31T10:58:51;11.30;99.90
19348;DHT22;9810;52.480;9.806;2023-10-31T11:01:22;11.20;99.90
19348;DHT22;9810;52.480;9.806;2023-10-31T11:03:52;11.40;99.90
19348;DHT22;9810;52.480;9.806;2023-10-31T11:06:21;11.30;99.90
19348;DHT22;9810;52.480;9.806;2023-10-31T11:08:52;11.20;99.90
19348;DHT22;9810;52.480;9.806;2023-10-31T11:11:20;11.30;99.90
19348;DHT22;9810;52.480;9.806;2023-10-31T11:13:50;11.40;99.90
19348;DHT22;9810;52.480;9.806;2023-10-31T11:16:21;11.60;99.90
19348;DHT22;9810;52.480;9.806;2023-10-31T11:18:52;11.60;99.90
19348;DHT22;9810;52.480;9.806;2023-10-31T11:21:22;11.70;99.90
19348;DHT22;9810;52.480;9.806;2023-10-31T11:23:57;11.80;99.90
19348;DHT22;9810;52.480;9.806;2023-10-31T11:26:26;12.00;99.90
19348;DHT22;9810;52.480;9.806;2023-10-31T11:29:02;12.00;99.90
19348;DHT22;9810;52.480;9.806;2023-10-31T11:31:30;12.00;99.90
19348;DHT22;9810;52.480;9.806;2023-10-31T11:34:00;12.10;99.90
19348;DHT22;9810;52.480;9.806;2023-10-31T11:36:30;11.80;99.90
19348;DHT22;9810;52.480;9.806;2023-10-31T11:39:10;12.00;99.90
19348;DHT22;9810;52.480;9.806;2023-10-31T11:41:39;12.10;99.90
19348;DHT22;9810;52.480;9.806;2023-10-31T11:44:07;12.10;99.90
19348;DHT22;9810;52.480;9.806;2023-10-31T11:46:33;12.20;99.90
19348;DHT22;9810;52.480;9.806;2023-10-31T11:49:03;12.20;99.90
19348;DHT22;9810;52.480;9.806;2023-10-31T11:51:31;12.10;99.90
19348;DHT22;9810;52.480;9.806;2023-10-31T11:53:59;12.10;99.90
19348;DHT22;9810;52.480;9.806;2023-10-31T11:56:27;12.30;99.90
19348;DHT22;9810;52.480;9.806;2023-10-31T11:58:58;12.20;99.90
19348;DHT22;9810;52.480;9.806;2023-10-31T12:01:25;12.20;99.90
19348;DHT22;9810;52.480;9.806;2023-10-31T12:03:52;12.10;99.90
19348;DHT22;9810;52.480;9.806;2023-10-31T12:06:21;12.10;99.90
19348;DHT22;9810;52.480;9.806;2023-10-31T12:08:48;12.30;99.90
19348;DHT22;9810;52.480;9.806;2023-10-31T12:11:17;12.10;99.90
19348;DHT22;9810;52.480;9.806;2023-10-31T12:13:53;12.20;99.90
19348;DHT22;9810;52.480;9.806;2023-10-31T12:16:23;12.10;99.90
19348;DHT22;9810;52.480;9.806;2023-10-31T12:18:55;12.20;99.90
19348;DHT22;9810;52.480;9.806;2023-10-31T12:21:42;12.20;99.90
19348;DHT22;9810;52.480;9.806;2023-10-31T12:24:18;12.30;99.90
19348;DHT22;9810;52.480;9.806;2023-10-31T12:26:46;12.30;99.90
19348;DHT22;9810;52.480;9.806;2023-10-31T12:29:17;12.20;99.90
19348;DHT22;9810;52.480;9.806;2023-10-31T12:32:11;12.20;99.90
19348;DHT22;9810;52.480;9.806;2023-10-31T12:34:43;12.20;99.90
19348;DHT22;9810;52.480;9.806;2023-10-31T12:37:12;12.10;99.90
19348;DHT22;9810;52.480;9.806;2023-10-31T12:39:40;12.10;99.90
19348;DHT22;9810;52.480;9.806;2023-10-31T12:42:07;12.00;99.90
19348;DHT22;9810;52.480;9.806;2023-10-31T12:44:35;12.10;99.90
19348;DHT22;9810;52.480;9.806;2023-10-31T12:47:02;12.00;99.90
19348;DHT22;9810;52.480;9.806;2023-10-31T12:49:33;12.20;99.90
19348;DHT22;9810;52.480;9.806;2023-10-31T12:52:01;12.30;99.90
19348;DHT22;9810;52.480;9.806;2023-10-31T12:54:32;12.40;99.90
19348;DHT22;9810;52.480;9.806;2023-10-31T12:57:00;12.30;99.90
19348;DHT22;9810;52.480;9.806;2023-10-31T12:59:28;12.40;99.90
19348;DHT22;9810;52.480;9.806;2023-10-31T13:01:55;12.40;99.90
19348;DHT22;9810;52.480;9.806;2023-10-31T13:04:25;12.20;99.90
19348;DHT22;9810;52.480;9.806;2023-10-31T13:06:56;12.40;99.90
19348;DHT22;9810;52.480;9.806;2023-10-31T13:09:28;12.40;99.90
19348;DHT22;9810;52.480;9.806;2023-10-31T13:12:00;12.50;99.90
19348;DHT22;9810;52.480;9.806;2023-10-31T13:14:27;12.50;99.90
19348;DHT22;9810;52.480;9.806;2023-10-31T13:16:54;12.60;99.90
19348;DHT22;9810;52.480;9.806;2023-10-31T13:19:21;12.40;99.90
19348;DHT22;9810;52.480;9.806;2023-10-31T13:21:48;12.50;99.90
19348;DHT22;9810;52.480;9.806;2023-10-31T13:24:15;12.50;99.90
19348;DHT22;9810;52.480;9.806;2023-10-31T13:26:42;12.40;99.90
19348;DHT22;9810;52.480;9.806;2023-10-31T13:29:12;12.50;99.90
19348;DHT22;9810;52.480;9.806;2023-10-31T13:31:39;12.50;99.90
19348;DHT22;9810;52.480;9.806;2023-10-31T13:34:06;12.50;99.90
19348;DHT22;9810;52.480;9.806;2023-10-31T13:36:33;12.50;99.90
19348;DHT22;9810;52.480;9.806;2023-10-31T13:39:02;12.50;99.90
19348;DHT22;9810;52.480;9.806;2023-10-31T13:41:29;12.40;99.90
19348;DHT22;9810;52.480;9.806;2023-10-31T13:43:56;12.50;99.90
19348;DHT22;9810;52.480;9.806;2023-10-31T13:46:25;12.40;99.90
19348;DHT22;9810;52.480;9.806;2023-10-31T13:48:52;12.50;99.90
19348;DHT22;9810;52.480;9.806;2023-10-31T13:51:19;12.50;99.90
19348;DHT22;9810;52.480;9.806;2023-10-31T13:53:46;12.50;99.90
19348;DHT22;9810;52.480;9.806;2023-10-31T13:56:15;12.40;99.90
19348;DHT22;9810;52.480;9.806;2023-10-31T13:58:42;12.50;99.90
19348;DHT22;9810;52.480;9.806;2023-10-31T14:01:09;12.60;99.90
19348;DHT22;9810;52.480;9.806;2023-10-31T14:03:38;12.50;99.90
19348;DHT22;9810;52.480;9.806;2023-10-31T14:06:05;12.50;99.90
19348;DHT22;9810;52.480;9.806;2023-10-31T14:08:32;12.50;99.90
19348;DHT22;9810;52.480;9.806;2023-10-31T14:10:59;12.50;99.90
19348;DHT22;9810;52.480;9.806;2023-10-31T14:13:28;12.50;99.90
19348;DHT22;9810;52.480;9.806;2023-10-31T14:15:55;12.50;99.90
19348;DHT22;9810;52.480;9.806;2023-10-31T14:18:22;12.40;99.90
19348;DHT22;9810;52.480;9.806;2023-10-31T14:20:50;12.50;99.90
19348;DHT22;9810;52.480;9.806;2023-10-31T14:23:18;12.50;99.90
19348;DHT22;9810;52.480;9.806;2023-10-31T14:25:45;12.50;99.90
19348;DHT22;9810;52.480;9.806;2023-10-31T14:28:12;12.50;99.90
19348;DHT22;9810;52.480;9.806;2023-10-31T14:30:39;12.40;99.90
19348;DHT22;9810;52.480;9.806;2023-10-31T14:33:06;12.50;99.90
19348;DHT22;9810;52.480;9.806;2023-10-31T14:35:33;12.40;99.90
19348;DHT22;9810;52.480;9.806;2023-10-31T14:38:02;12.40;99.90
19348;DHT22;9810;52.480;9.806;2023-10-31T14:40:29;12.30;99.90
19348;DHT22;9810;52.480;9.806;2023-10-31T14:42:56;12.30;99.90
19348;DHT22;9810;52.480;9.806;2023-10-31T14:45:23;12.30;99.90
19348;DHT22;9810;52.480;9.806;2023-10-31T14:47:50;12.40;99.90
19348;DHT22;9810;52.480;9.806;2023-10-31T14:50:18;12.20;99.90
19348;DHT22;9810;52.480;9.806;2023-10-31T14:52:46;12.10;99.90
19348;DHT22;9810;52.480;9.806;2023-10-31T14:55:15;11.90;99.90
19348;DHT22;9810;52.480;9.806;2023-10-31T14:57:42;11.90;99.90
19348;DHT22;9810;52.480;9.806;2023-10-31T15:00:10;11.80;99.90
19348;DHT22;9810;52.480;9.806;2023-10-31T15:02:37;11.70;99.90
19348;DHT22;9810;52.480;9.806;2023-10-31T15:05:04;11.50;99.90
19348;DHT22;9810;52.480;9.806;2023-10-31T15:07:31;11.60;99.90
19348;DHT22;9810;52.480;9.806;2023-10-31T15:09:58;11.40;99.90
19348;DHT22;9810;52.480;9.806;2023-10-31T15:12:29;11.60;99.90
19348;DHT22;9810;52.480;9.806;2023-10-31T15:14:56;11.50;99.90
19348;DHT22;9810;52.480;9.806;2023-10-31T15:17:23;11.60;99.90
19348;DHT22;9810;52.480;9.806;2023-10-31T15:19:50;11.60;99.90
19348;DHT22;9810;52.480;9.806;2023-10-31T15:22:17;11.50;99.90
19348;DHT22;9810;52.480;9.806;2023-10-31T15:24:44;11.50;99.90
19348;DHT22;9810;52.480;9.806;2023-10-31T15:27:11;11.60;99.90
19348;DHT22;9810;52.480;9.806;2023-10-31T15:29:41;11.50;99.90
19348;DHT22;9810;52.480;9.806;2023-10-31T15:32:08;11.40;99.90
19348;DHT22;9810;52.480;9.806;2023-10-31T15:34:35;11.50;99.90
19348;DHT22;9810;52.480;9.806;2023-10-31T15:37:04;11.50;99.90
19348;DHT22;9810;52.480;9.806;2023-10-31T15:39:31;11.40;99.90
19348;DHT22;9810;52.480;9.806;2023-10-31T15:41:59;11.50;99.90
19348;DHT22;9810;52.480;9.806;2023-10-31T15:44:26;11.40;99.90
19348;DHT22;9810;52.480;9.806;2023-10-31T15:46:54;11.40;99.90
19348;DHT22;9810;52.480;9.806;2023-10-31T15:49:22;11.50;99.90
19348;DHT22;9810;52.480;9.806;2023-10-31T15:51:49;11.60;99.90
19348;DHT22;9810;52.480;9.806;2023-10-31T15:54:16;11.50;99.90
19348;DHT22;9810;52.480;9.806;2023-10-31T15:56:43;11.30;99.90